Tropical Cyclones
[Index]
Main Index Home Page Stock Weather Photos Extreme Storms Discussion Storm News and Storm Chasing Reports Tropical Cyclones / Hurricanes / Typhoons Weather Data and Links Wild Fires / Bushfires Weather Observation Techniques Weather Picture Catalogue Tornado Pictures and Reports Stock Video Footage and DVDs for sale
Season 2003-2004 Tropical Cyclone FRANK Track Map
Season 2003-2004 Summaries (Operational Data): [AU] [SIO] [SPAC] [SH]
<<- Previous TC | 2003-2004 Season | Next TC ->>

click for intensity scale information  Lat/long Grid: Show Hide

 Date Labels: Show Hide

Operational Tropical Cyclone Data : JTWC Advisories

Name: FRANK
Number: 0410

27 Jan 2004 12:00 UTC to 07 Feb 2004 12:00 UTC

    date/time    lat    long     hPa   cat  kts
2004-01-27 12   11.5    64.5    1003         25          
2004-01-27 18   11.8    65.0     997         30          
2004-01-28 00   12.3    65.0     997         30          
2004-01-28 06   13.0    64.5     987    1    45          
2004-01-28 12   14.2    64.4     982    2    50          
2004-01-28 18   15.0    64.1     975    2    60          
2004-01-29 00   15.3    63.8     970    3    65          
2004-01-29 06   15.7    63.6     967    3    65          
2004-01-29 12   16.2    63.2     967    3    65          
2004-01-29 18   16.5    63.1     967    3    65          
2004-01-30 00   16.4    62.5     960    3    70          
2004-01-30 06   16.0    62.1     945    4    90          
2004-01-30 12   15.7    61.8     945    4    90          
2004-01-30 18   15.5    61.6     925    4   105          
2004-01-31 00   15.4    61.5     925    4   105          
2004-01-31 06   15.3    61.7     935    4    95          
2004-01-31 12   15.5    61.9     940    4    90          
2004-01-31 18   15.8    62.0     945    3    85          
2004-02-01 00   16.0    62.3     945    3    85          
2004-02-01 06   16.0    62.9     945    3    85          
2004-02-01 12   16.2    64.2     950    3    80          
2004-02-01 18   16.9    65.0     940    4    95          
2004-02-02 00   17.0    66.1     925    4   105          
2004-02-02 06   17.2    67.1     925    4    95          
2004-02-02 12   17.3    67.9     925    4   100          
2004-02-02 18   17.3    69.1     927    4   100          
2004-02-03 00   17.6    70.0     935    4    95          
2004-02-03 06   17.5    70.6     945    3    85          
2004-02-03 12   17.8    70.8     945    3    85          
2004-02-03 18   17.8    70.8     945    3    85          
2004-02-04 00   18.3    70.5     940    4    90          
2004-02-04 06   18.5    70.4     942    4    90          
2004-02-04 12   18.7    70.2     942    4    90          
2004-02-04 18   19.1    69.9     942    4    90          
2004-02-05 00   19.5    70.0     942    4    90          
2004-02-05 06   19.9    69.9     945    3    85          
2004-02-05 12   20.5    70.7     955    3    80          
2004-02-05 18   21.1    71.1     965    3    70          
2004-02-06 00   21.5    72.0     978    2    60          
2004-02-06 06   22.3    73.2     985    2    50          
2004-02-06 12   23.0    74.5     990    1    40          
2004-02-06 18   24.0    76.1     992    1    40          
2004-02-07 00   25.3    77.6     992    1    40          
2004-02-07 06   26.1    78.9     994    1    35          
2004-02-07 12   27.8    80.4     994    1    35          
Winds are 10-min average.

Tropical cyclone tracks developed by Michael Bath using operational warnings and advisories and Google Maps.


[Australian Severe Weather index] [Copyright Notice] [Email Contacts] [Search This Site] [Privacy Policy]
Document: tropical_cyclone_frank.htm Updated: 28 May 2013